Time;durP1;ratioP1;P1;durP2;ratioP2;P2;SDS_P1;SDS_P2;PMS_P1;PMS_P2;Temp;Humidity;BMP_temperature;BMP_pressure;BME280_temperature;BME280_humidity;BME280_pressure;Samples;Min_cycle;Max_cycle;Signal;HPM_P1;HPM_P2
2024/01/21 00:00:30;;;;;;;15.40;9.37;;;0.70;1.00;;;;;;5006421;28;36151;-76
2024/01/21 00:02:56;;;;;;;17.93;10.03;;;0.70;1.00;;;;;;5010732;28;40722;-77
2024/01/21 00:05:22;;;;;;;18.40;10.00;;;0.80;1.00;;;;;;4995523;28;37295;-78
2024/01/21 00:07:48;;;;;;;18.73;10.53;;;0.80;1.00;;;;;;4987844;28;37552;-77
2024/01/21 00:10:14;;;;;;;15.40;9.20;;;0.80;1.00;;;;;;5011538;28;36982;-78
2024/01/21 00:12:40;;;;;;;12.23;8.40;;;0.80;1.00;;;;;;5001333;28;37806;-77
2024/01/21 00:15:07;;;;;;;14.70;9.27;;;0.80;1.00;;;;;;4996940;28;37770;-78
2024/01/21 00:17:33;;;;;;;15.83;9.23;;;0.80;1.00;;;;;;5011931;28;37662;-77
2024/01/21 00:19:59;;;;;;;17.10;8.97;;;0.80;1.00;;;;;;5010124;28;37071;-77
2024/01/21 00:22:25;;;;;;;15.90;8.83;;;0.80;1.00;;;;;;4990930;28;38678;-77
2024/01/21 00:24:51;;;;;;;17.07;9.17;;;0.80;1.00;;;;;;5007792;28;39368;-77
2024/01/21 00:27:17;;;;;;;18.20;8.10;;;0.80;1.00;;;;;;4995647;28;36947;-78
2024/01/21 00:29:43;;;;;;;15.97;8.43;;;0.80;1.00;;;;;;5010698;28;36152;-77
2024/01/21 00:32:09;;;;;;;14.87;7.73;;;0.80;1.00;;;;;;5006307;28;37480;-77
2024/01/21 00:34:35;;;;;;;12.67;7.53;;;0.80;1.00;;;;;;4990121;28;38654;-77
2024/01/21 00:37:02;;;;;;;15.57;7.87;;;0.80;1.00;;;;;;5001639;28;38187;-78
2024/01/21 00:39:28;;;;;;;15.70;7.93;;;0.80;1.00;;;;;;4990079;28;36160;-77
2024/01/21 00:41:55;;;;;;;12.17;7.83;;;0.80;1.00;;;;;;4993168;28;38049;-77
2024/01/21 00:44:21;;;;;;;12.10;7.43;;;0.80;1.00;;;;;;5008110;28;39745;-78
2024/01/21 00:46:47;;;;;;;13.50;7.70;;;0.80;1.00;;;;;;4990872;28;36972;-77
2024/01/21 00:49:13;;;;;;;12.63;6.90;;;0.70;1.00;;;;;;5001715;28;36341;-78
2024/01/21 00:51:39;;;;;;;13.23;7.33;;;0.70;1.00;;;;;;4988978;28;37484;-77
2024/01/21 00:54:06;;;;;;;12.73;7.43;;;0.70;1.00;;;;;;4999772;28;36320;-77
2024/01/21 00:56:32;;;;;;;11.90;6.90;;;0.70;1.00;;;;;;5004745;28;37173;-78
2024/01/21 00:58:58;;;;;;;12.80;6.83;;;0.70;1.00;;;;;;5015534;28;37387;-78
2024/01/21 01:01:24;;;;;;;13.07;6.83;;;0.70;1.00;;;;;;5007686;28;39022;-77
2024/01/21 01:03:50;;;;;;;12.50;7.43;;;0.70;1.00;;;;;;4996245;28;37956;-77
2024/01/21 01:06:17;;;;;;;11.93;6.83;;;0.70;1.00;;;;;;4993743;28;38301;-77
2024/01/21 01:08:43;;;;;;;12.77;6.80;;;0.70;1.00;;;;;;5011461;28;37458;-78
2024/01/21 01:11:09;;;;;;;12.30;6.73;;;0.70;1.00;;;;;;5009597;28;38263;-79
2024/01/21 01:13:35;;;;;;;9.90;6.50;;;0.70;1.00;;;;;;5011331;28;38587;-78
2024/01/21 01:16:02;;;;;;;11.97;6.73;;;0.70;1.00;;;;;;5017045;28;36856;-77
2024/01/21 01:18:28;;;;;;;14.70;7.40;;;0.70;1.00;;;;;;5020756;28;48571;-77
2024/01/21 01:20:54;;;;;;;11.63;6.53;;;0.70;1.00;;;;;;4998392;28;37654;-78
2024/01/21 01:23:21;;;;;;;9.57;6.33;;;0.70;1.00;;;;;;4995210;28;36965;-78
2024/01/21 01:25:47;;;;;;;11.00;5.60;;;0.70;1.00;;;;;;5019356;28;39182;-78
2024/01/21 01:28:13;;;;;;;15.43;6.07;;;0.70;1.00;;;;;;5017378;28;37751;-78
2024/01/21 01:30:39;;;;;;;12.03;6.87;;;0.70;1.00;;;;;;4996070;28;37893;-78
2024/01/21 01:33:06;;;;;;;11.77;5.57;;;0.70;1.00;;;;;;5017804;28;38787;-78
2024/01/21 01:35:32;;;;;;;13.00;6.07;;;0.70;1.00;;;;;;5011304;28;38250;-78
2024/01/21 01:37:58;;;;;;;10.17;5.83;;;0.70;1.00;;;;;;4993038;28;35863;-78
2024/01/21 01:40:24;;;;;;;11.80;5.57;;;0.60;1.00;;;;;;5010475;28;39184;-78
2024/01/21 01:42:57;;;;;;;13.60;6.03;;;0.60;1.00;;;;;;4996411;28;37035;-78
2024/01/21 01:45:24;;;;;;;10.93;6.87;;;0.70;1.00;;;;;;4995891;28;38072;-78
2024/01/21 01:47:50;;;;;;;11.57;6.83;;;0.70;1.00;;;;;;4996976;28;37130;-78
2024/01/21 01:50:17;;;;;;;9.80;5.80;;;0.60;1.00;;;;;;5002016;28;37579;-77
2024/01/21 01:52:44;;;;;;;9.13;5.57;;;0.60;1.00;;;;;;5004356;28;37619;-77
2024/01/21 01:55:11;;;;;;;14.93;5.97;;;0.60;1.00;;;;;;5003981;28;37083;-78
2024/01/21 01:57:37;;;;;;;10.37;5.60;;;0.60;1.00;;;;;;5026990;28;37385;-78
2024/01/21 02:00:06;;;;;;;8.67;5.33;;;0.50;1.00;;;;;;5021665;28;39432;-77
2024/01/21 02:02:34;;;;;;;9.37;5.20;;;0.50;1.00;;;;;;5403279;22;37834;-78
2024/01/21 02:05:04;;;;;;;9.37;5.60;;;0.60;1.00;;;;;;5033085;28;37318;-78
2024/01/21 02:07:31;;;;;;;13.67;6.07;;;0.50;1.00;;;;;;5029166;28;48097;-78
2024/01/21 02:09:57;;;;;;;10.43;4.83;;;0.50;1.00;;;;;;5032365;28;39448;-78
2024/01/21 02:12:23;;;;;;;9.03;5.40;;;0.50;1.00;;;;;;5031864;28;37722;-78
2024/01/21 02:14:49;;;;;;;10.47;5.77;;;0.50;1.00;;;;;;5039442;28;37142;-78
2024/01/21 02:17:15;;;;;;;11.10;6.20;;;0.60;1.00;;;;;;5025383;28;36267;-79
2024/01/21 02:19:41;;;;;;;8.90;5.47;;;0.60;1.00;;;;;;5023704;28;37961;-78
2024/01/21 02:22:07;;;;;;;12.23;6.17;;;0.60;1.00;;;;;;5046112;28;38103;-78
2024/01/21 02:24:33;;;;;;;11.77;5.27;;;0.60;1.00;;;;;;5029207;28;37208;-78
2024/01/21 02:27:00;;;;;;;11.10;6.03;;;0.60;1.00;;;;;;5032661;28;37801;-78
2024/01/21 02:29:26;;;;;;;13.10;5.83;;;0.70;1.00;;;;;;5033975;28;39519;-77
2024/01/21 02:31:53;;;;;;;10.23;5.23;;;0.60;1.00;;;;;;5029630;28;36997;-78
2024/01/21 02:34:20;;;;;;;12.97;5.80;;;0.60;1.00;;;;;;5048176;28;39275;-78
2024/01/21 02:36:49;;;;;;;8.50;5.07;;;0.70;1.00;;;;;;5030116;28;37559;-79
2024/01/21 02:39:15;;;;;;;9.57;5.33;;;0.70;1.00;;;;;;5037161;28;37845;-78
2024/01/21 02:41:42;;;;;;;9.97;5.83;;;0.70;1.00;;;;;;5033606;28;38626;-78
2024/01/21 02:44:08;;;;;;;9.63;5.83;;;0.80;1.00;;;;;;5035981;28;37284;-78
2024/01/21 02:46:34;;;;;;;12.10;5.93;;;0.80;1.00;;;;;;5038948;28;36026;-78
2024/01/21 02:49:00;;;;;;;11.23;5.47;;;0.80;1.00;;;;;;5036744;28;39126;-78
2024/01/21 02:51:26;;;;;;;9.80;5.17;;;0.80;1.00;;;;;;5034109;28;37553;-78
2024/01/21 02:53:53;;;;;;;9.63;5.47;;;0.80;1.00;;;;;;5028224;28;36448;-78
2024/01/21 02:56:23;;;;;;;14.97;6.17;;;0.90;1.00;;;;;;5054372;28;37565;-78
2024/01/21 02:58:51;;;;;;;14.07;5.80;;;0.90;1.00;;;;;;5052803;28;38172;-79
2024/01/21 03:01:17;;;;;;;11.50;5.40;;;1.00;1.00;;;;;;5042428;28;37173;-79
2024/01/21 03:03:44;;;;;;;12.20;6.10;;;1.00;1.00;;;;;;5046846;28;36950;-79
2024/01/21 03:06:10;;;;;;;12.93;6.00;;;1.10;1.00;;;;;;5037753;28;37111;-77
2024/01/21 03:08:37;;;;;;;10.13;5.93;;;1.10;1.00;;;;;;5042013;28;39022;-78
2024/01/21 03:11:03;;;;;;;9.60;5.73;;;1.20;1.00;;;;;;5036954;28;38452;-79
2024/01/21 03:13:29;;;;;;;10.03;5.47;;;1.20;1.00;;;;;;5047665;28;39826;-78
2024/01/21 03:15:56;;;;;;;10.17;5.37;;;1.20;1.00;;;;;;5027409;28;36065;-79
2024/01/21 03:18:22;;;;;;;10.20;5.53;;;1.30;1.00;;;;;;5041820;28;37676;-79
2024/01/21 03:20:48;;;;;;;10.00;5.83;;;1.30;1.00;;;;;;5024518;28;37552;-79
2024/01/21 03:23:14;;;;;;;9.10;6.43;;;1.30;1.00;;;;;;5051075;28;40950;-78
2024/01/21 03:25:41;;;;;;;9.60;5.47;;;1.20;1.00;;;;;;5040260;28;36495;-78
2024/01/21 03:28:07;;;;;;;9.93;4.97;;;1.30;1.00;;;;;;5044412;28;38711;-79
2024/01/21 03:30:33;;;;;;;10.80;5.60;;;1.30;1.00;;;;;;5035276;28;38746;-78
2024/01/21 03:32:59;;;;;;;11.47;5.27;;;1.30;1.00;;;;;;5035564;28;37310;-78
2024/01/21 03:35:25;;;;;;;12.27;6.17;;;1.40;1.00;;;;;;5050347;28;36985;-78
2024/01/21 03:37:52;;;;;;;9.57;6.00;;;1.40;1.00;;;;;;5043727;28;37575;-78
2024/01/21 03:40:18;;;;;;;11.40;5.47;;;1.30;1.00;;;;;;5038555;28;37209;-78
2024/01/21 03:42:45;;;;;;;10.63;5.43;;;1.40;1.00;;;;;;5050259;28;37942;-79
2024/01/21 03:45:11;;;;;;;9.00;5.30;;;1.60;1.00;;;;;;5049373;28;37045;-78
2024/01/21 03:47:38;;;;;;;8.50;5.17;;;1.80;1.00;;;;;;5037744;28;38849;-78
2024/01/21 03:50:05;;;;;;;9.90;5.23;;;2.00;1.00;;;;;;5030225;28;38640;-78
2024/01/21 03:52:31;;;;;;;10.73;5.80;;;2.10;1.00;;;;;;5036735;28;47021;-78
2024/01/21 03:54:57;;;;;;;9.57;5.17;;;2.20;99.90;;;;;;5050616;28;36907;-78
2024/01/21 03:57:23;;;;;;;8.67;4.90;;;2.20;99.90;;;;;;5041977;28;37898;-78
2024/01/21 03:59:50;;;;;;;9.83;5.83;;;2.20;99.90;;;;;;5033935;28;37260;-78
2024/01/21 04:02:16;;;;;;;10.60;5.87;;;2.30;99.90;;;;;;5030789;28;38022;-79
2024/01/21 04:04:44;;;;;;;9.10;5.17;;;2.30;99.90;;;;;;5042579;28;37186;-78
2024/01/21 04:07:11;;;;;;;9.63;5.37;;;2.30;99.90;;;;;;5036893;28;38051;-78
2024/01/21 04:09:37;;;;;;;9.03;5.23;;;2.40;99.90;;;;;;5030969;28;37292;-78
2024/01/21 04:12:03;;;;;;;13.53;5.67;;;2.50;99.90;;;;;;5033551;28;36643;-78
2024/01/21 04:14:29;;;;;;;7.97;5.43;;;2.50;99.90;;;;;;5049980;28;37305;-78
2024/01/21 04:16:55;;;;;;;9.97;5.40;;;2.50;48.70;;;;;;5038016;28;38052;-77
2024/01/21 04:19:21;;;;;;;11.70;4.97;;;2.50;99.90;;;;;;5045581;28;38193;-78
2024/01/21 04:21:47;;;;;;;9.43;5.50;;;2.50;99.90;;;;;;5033997;28;37413;-78
2024/01/21 04:24:13;;;;;;;8.33;5.10;;;2.40;99.90;;;;;;5049223;28;36577;-78
2024/01/21 04:26:39;;;;;;;10.17;5.60;;;2.50;99.90;;;;;;5033146;28;38523;-79
2024/01/21 04:29:06;;;;;;;10.13;5.33;;;2.50;99.90;;;;;;5056975;28;40210;-79
2024/01/21 04:31:32;;;;;;;10.27;5.90;;;2.40;99.90;;;;;;5051974;28;36922;-78
2024/01/21 04:33:58;;;;;;;12.60;5.80;;;2.30;1.00;;;;;;5038241;28;36045;-78
2024/01/21 04:36:24;;;;;;;13.43;6.00;;;2.40;1.00;;;;;;5032252;28;38106;-78
2024/01/21 04:38:50;;;;;;;8.97;5.47;;;2.40;1.00;;;;;;5047159;28;39119;-78
2024/01/21 04:41:16;;;;;;;8.57;5.37;;;2.30;1.00;;;;;;5047056;28;38596;-77
2024/01/21 04:43:44;;;;;;;8.93;5.73;;;2.30;1.00;;;;;;5033156;28;35966;-78
2024/01/21 04:46:10;;;;;;;7.70;5.60;;;2.30;1.00;;;;;;5041792;28;38459;-78
2024/01/21 04:48:36;;;;;;;8.50;5.33;;;2.30;1.00;;;;;;5047604;28;37923;-78
2024/01/21 04:51:03;;;;;;;9.20;6.23;;;2.30;1.00;;;;;;5046215;28;35729;-78
2024/01/21 04:53:29;;;;;;;11.73;5.73;;;2.20;1.00;;;;;;5018702;28;35944;-78
2024/01/21 04:55:55;;;;;;;11.00;5.90;;;2.20;1.00;;;;;;5048287;28;38683;-78
2024/01/21 04:58:21;;;;;;;11.07;5.93;;;2.20;1.00;;;;;;5041890;28;37950;-78
2024/01/21 05:00:47;;;;;;;9.47;6.03;;;2.20;1.00;;;;;;5050598;28;38301;-77
2024/01/21 05:03:14;;;;;;;8.73;5.43;;;2.20;1.00;;;;;;5045409;28;37810;-78
2024/01/21 05:05:40;;;;;;;10.13;5.43;;;2.20;1.00;;;;;;5026024;28;37649;-78
2024/01/21 05:08:06;;;;;;;10.57;5.93;;;2.20;1.00;;;;;;5022453;28;37649;-77
2024/01/21 05:10:33;;;;;;;13.03;5.90;;;2.20;1.00;;;;;;5037954;28;38103;-78
2024/01/21 05:12:59;;;;;;;9.97;5.63;;;2.20;1.00;;;;;;5029017;28;37793;-78
2024/01/21 05:15:26;;;;;;;9.87;6.33;;;2.10;1.00;;;;;;5049983;28;38483;-78
2024/01/21 05:17:52;;;;;;;10.23;6.37;;;2.10;1.00;;;;;;5045570;28;38744;-78
2024/01/21 05:20:18;;;;;;;7.67;5.17;;;2.10;1.00;;;;;;5051194;28;38036;-78
2024/01/21 05:22:44;;;;;;;10.67;5.63;;;2.10;1.00;;;;;;5034381;28;37178;-78
2024/01/21 05:25:11;;;;;;;8.53;5.60;;;2.10;1.00;;;;;;5032732;28;37583;-78
2024/01/21 05:27:37;;;;;;;11.50;5.97;;;2.00;1.00;;;;;;5036855;28;37186;-78
2024/01/21 05:30:04;;;;;;;10.50;6.40;;;2.00;1.00;;;;;;5048799;28;37723;-78
2024/01/21 05:32:30;;;;;;;8.93;6.30;;;2.00;1.00;;;;;;5035024;28;35552;-78
2024/01/21 05:34:56;;;;;;;9.87;6.00;;;2.00;1.00;;;;;;5059478;28;39580;-78
2024/01/21 05:37:22;;;;;;;9.87;5.97;;;2.10;1.00;;;;;;5060591;28;38023;-78
2024/01/21 05:39:48;;;;;;;9.23;5.80;;;2.10;1.00;;;;;;5037469;28;37022;-78
2024/01/21 05:42:14;;;;;;;8.90;6.30;;;2.10;1.00;;;;;;5034379;28;36197;-78
2024/01/21 05:44:41;;;;;;;9.03;5.83;;;2.10;1.00;;;;;;5040172;28;38987;-78
2024/01/21 05:47:07;;;;;;;9.13;5.57;;;2.10;1.00;;;;;;5056141;28;38381;-77
2024/01/21 05:49:33;;;;;;;8.50;5.73;;;2.10;1.00;;;;;;5033823;28;38203;-78
2024/01/21 05:51:59;;;;;;;9.90;5.90;;;2.10;1.00;;;;;;5027252;28;35811;-78
2024/01/21 05:54:26;;;;;;;9.43;6.10;;;2.00;1.00;;;;;;5048711;28;37649;-78
2024/01/21 05:56:52;;;;;;;10.97;6.50;;;2.00;1.00;;;;;;5041000;28;37634;-78
2024/01/21 05:59:20;;;;;;;10.77;6.37;;;2.10;1.00;;;;;;5034470;28;37711;-78
2024/01/21 06:01:50;;;;;;;11.03;6.73;;;2.00;1.00;;;;;;5057660;28;37772;-78
2024/01/21 06:04:16;;;;;;;11.23;5.70;;;2.00;1.00;;;;;;5052723;28;39370;-78
2024/01/21 06:06:43;;;;;;;11.97;5.70;;;2.00;1.00;;;;;;5032631;28;38104;-78
2024/01/21 06:09:09;;;;;;;9.47;5.80;;;2.00;1.00;;;;;;5055134;28;38775;-78
2024/01/21 06:11:35;;;;;;;16.37;7.10;;;2.00;1.00;;;;;;5049518;28;37478;-78
2024/01/21 06:14:01;;;;;;;10.80;6.00;;;2.00;1.00;;;;;;5044507;28;39559;-78
2024/01/21 06:16:28;;;;;;;10.57;6.33;;;2.00;1.00;;;;;;5028971;28;37623;-77
2024/01/21 06:18:54;;;;;;;9.40;6.00;;;2.00;1.00;;;;;;5031577;28;38228;-78
2024/01/21 06:21:20;;;;;;;10.03;6.33;;;2.10;1.00;;;;;;5029847;28;36622;-78
2024/01/21 06:23:49;;;;;;;12.07;6.93;;;2.00;1.00;;;;;;5038986;28;38562;-77
2024/01/21 06:26:22;;;;;;;10.87;6.60;;;2.10;1.00;;;;;;5029859;28;39436;-78
2024/01/21 06:28:51;;;;;;;10.80;6.97;;;2.10;1.00;;;;;;5030219;28;37402;-79
2024/01/21 06:31:18;;;;;;;10.90;6.77;;;2.10;1.00;;;;;;5047567;28;37805;-78
2024/01/21 06:33:44;;;;;;;9.23;6.50;;;2.10;1.00;;;;;;5043580;28;39368;-78
2024/01/21 06:36:11;;;;;;;11.43;6.53;;;2.10;1.00;;;;;;5025046;28;36899;-78
2024/01/21 06:38:39;;;;;;;15.00;7.10;;;2.00;1.00;;;;;;5043158;28;38368;-77
2024/01/21 06:41:06;;;;;;;11.67;6.43;;;2.10;1.00;;;;;;5032092;28;38063;-78
2024/01/21 06:43:32;;;;;;;11.93;6.33;;;2.10;1.00;;;;;;5034851;28;39114;-78
2024/01/21 06:45:58;;;;;;;12.87;6.77;;;2.10;1.00;;;;;;5031901;28;37277;-78
2024/01/21 06:48:24;;;;;;;9.90;5.90;;;2.10;1.00;;;;;;5030729;28;37228;-78
2024/01/21 06:50:51;;;;;;;11.03;6.40;;;2.00;1.00;;;;;;5050009;28;36969;-77
2024/01/21 06:53:17;;;;;;;12.77;6.77;;;2.00;1.00;;;;;;5054512;28;39945;-78
2024/01/21 06:55:44;;;;;;;9.23;6.07;;;1.90;1.00;;;;;;5027036;28;37226;-78
2024/01/21 06:58:13;;;;;;;11.93;6.33;;;2.00;1.00;;;;;;5028118;28;38319;-78
2024/01/21 07:00:39;;;;;;;12.30;6.93;;;1.90;1.00;;;;;;5032933;28;36155;-78
2024/01/21 07:03:05;;;;;;;9.17;6.50;;;1.90;1.00;;;;;;5025298;28;37563;-78
2024/01/21 07:05:31;;;;;;;10.27;6.77;;;1.90;1.00;;;;;;5048269;28;38738;-77
2024/01/21 07:07:57;;;;;;;10.67;6.43;;;1.90;1.00;;;;;;5033414;28;37055;-78
2024/01/21 07:10:23;;;;;;;12.97;6.27;;;1.90;1.00;;;;;;5040058;28;36036;-78
2024/01/21 07:12:50;;;;;;;11.40;6.37;;;1.90;1.00;;;;;;5037210;28;37591;-78
2024/01/21 07:15:16;;;;;;;11.17;7.87;;;2.00;1.00;;;;;;5050300;28;38268;-78
2024/01/21 07:17:43;;;;;;;14.53;6.63;;;2.00;1.00;;;;;;5048596;28;39257;-78
2024/01/21 07:20:12;;;;;;;11.20;6.47;;;2.00;1.00;;;;;;5040491;28;37036;-78
2024/01/21 07:22:38;;;;;;;11.00;6.47;;;2.00;1.00;;;;;;5031803;28;37653;-78
2024/01/21 07:25:04;;;;;;;11.53;6.63;;;2.00;1.00;;;;;;5057444;28;37870;-79
2024/01/21 07:27:31;;;;;;;11.77;6.70;;;2.00;1.00;;;;;;5054591;28;38269;-78
2024/01/21 07:29:57;;;;;;;15.27;6.50;;;2.00;1.00;;;;;;5031446;28;36497;-78
2024/01/21 07:32:23;;;;;;;10.00;6.07;;;2.00;1.00;;;;;;5033026;28;40023;-77
2024/01/21 07:34:49;;;;;;;12.67;6.77;;;2.10;1.00;;;;;;5033328;28;37379;-77
2024/01/21 07:37:16;;;;;;;11.97;7.33;;;2.10;1.00;;;;;;5030140;28;39515;-78
2024/01/21 07:39:42;;;;;;;11.53;5.93;;;2.10;1.00;;;;;;5035673;28;36169;-78
2024/01/21 07:42:08;;;;;;;10.10;6.10;;;2.20;1.00;;;;;;5049432;28;40053;-79
2024/01/21 07:44:34;;;;;;;10.43;6.83;;;2.20;1.00;;;;;;5036143;28;38360;-78
2024/01/21 07:47:00;;;;;;;11.70;6.40;;;2.20;1.00;;;;;;5044235;28;37376;-78
2024/01/21 07:49:26;;;;;;;8.50;5.83;;;2.20;1.00;;;;;;5026086;28;37768;-78
2024/01/21 07:51:53;;;;;;;10.63;7.07;;;2.30;1.00;;;;;;5048289;28;38727;-78
2024/01/21 07:54:19;;;;;;;11.27;6.17;;;2.30;1.00;;;;;;5050342;28;38790;-77
2024/01/21 07:56:46;;;;;;;14.30;6.80;;;2.30;1.00;;;;;;5037955;28;36807;-78
2024/01/21 07:59:12;;;;;;;13.23;7.33;;;2.30;1.00;;;;;;5016716;28;36879;-78
2024/01/21 08:01:38;;;;;;;9.27;6.27;;;2.40;1.00;;;;;;5046637;28;39300;-78
2024/01/21 08:04:07;;;;;;;13.07;7.40;;;2.40;1.00;;;;;;5045835;28;39632;-78
2024/01/21 08:06:33;;;;;;;11.37;6.60;;;2.50;1.00;;;;;;5062362;28;38386;-78
2024/01/21 08:08:59;;;;;;;10.53;6.90;;;2.50;1.00;;;;;;5069103;28;37182;-78
2024/01/21 08:11:25;;;;;;;12.30;7.10;;;2.50;1.00;;;;;;5044616;28;38057;-78
2024/01/21 08:13:51;;;;;;;12.47;6.97;;;2.50;1.00;;;;;;5053636;28;39568;-78
2024/01/21 08:16:18;;;;;;;11.97;6.60;;;2.50;1.00;;;;;;5038407;28;37175;-78
2024/01/21 08:18:44;;;;;;;11.97;7.13;;;2.60;1.00;;;;;;5028195;28;36050;-78
2024/01/21 08:21:13;;;;;;;12.63;6.70;;;2.60;1.00;;;;;;5046700;28;38998;-77
2024/01/21 08:23:40;;;;;;;11.87;6.97;;;2.60;1.00;;;;;;5036031;28;38911;-78
2024/01/21 08:26:06;;;;;;;11.33;7.13;;;2.60;1.00;;;;;;5027771;28;36948;-78
2024/01/21 08:28:32;;;;;;;12.93;6.83;;;2.60;1.00;;;;;;5032665;28;37358;-78
2024/01/21 08:30:58;;;;;;;13.97;7.23;;;2.70;1.00;;;;;;5034882;28;37500;-78
2024/01/21 08:33:24;;;;;;;12.57;6.93;;;2.70;1.00;;;;;;5045188;28;35887;-78
2024/01/21 08:35:50;;;;;;;10.37;6.70;;;2.70;1.00;;;;;;5038671;28;37600;-77
2024/01/21 08:38:18;;;;;;;11.20;6.60;;;2.70;1.00;;;;;;5037188;28;36726;-78
2024/01/21 08:40:44;;;;;;;11.43;7.53;;;2.70;1.00;;;;;;5042841;28;39151;-79
2024/01/21 08:43:10;;;;;;;10.53;7.17;;;2.80;1.00;;;;;;5047165;28;38463;-80
2024/01/21 08:45:36;;;;;;;11.83;7.90;;;2.80;1.00;;;;;;5040222;28;36707;-78
2024/01/21 08:48:03;;;;;;;11.23;6.70;;;2.80;1.00;;;;;;5041591;28;37786;-79
2024/01/21 08:50:29;;;;;;;11.53;6.83;;;2.90;1.00;;;;;;5033352;28;38614;-78
2024/01/21 08:52:55;;;;;;;10.83;7.33;;;2.90;6.30;;;;;;5021118;28;37268;-78
2024/01/21 08:55:21;;;;;;;17.03;7.53;;;2.90;6.70;;;;;;5034887;28;37950;-77
2024/01/21 08:57:47;;;;;;;10.77;7.33;;;3.00;13.40;;;;;;5036862;28;37316;-77
2024/01/21 09:00:14;;;;;;;10.87;6.80;;;3.10;15.20;;;;;;5024075;28;38373;-78
2024/01/21 09:02:40;;;;;;;10.87;6.93;;;3.10;19.70;;;;;;5035426;28;37904;-77
2024/01/21 09:05:07;;;;;;;11.97;7.43;;;3.10;22.80;;;;;;5040186;28;38113;-77
2024/01/21 09:07:34;;;;;;;11.67;8.23;;;3.10;27.50;;;;;;5037092;28;37379;-77
2024/01/21 09:10:00;;;;;;;14.10;7.77;;;3.20;35.30;;;;;;5036585;28;39899;-77
2024/01/21 09:12:26;;;;;;;15.60;7.97;;;3.20;39.50;;;;;;5028301;28;37900;-77
2024/01/21 09:14:52;;;;;;;17.77;8.83;;;3.20;41.50;;;;;;5047725;28;38151;-77
2024/01/21 09:17:18;;;;;;;16.20;7.97;;;3.20;48.00;;;;;;5026769;28;35878;-78
2024/01/21 09:19:44;;;;;;;16.20;8.63;;;3.30;53.80;;;;;;5021499;28;37516;-77
2024/01/21 09:22:10;;;;;;;12.80;8.03;;;3.30;57.70;;;;;;5022310;28;37613;-77
2024/01/21 09:24:37;;;;;;;12.70;8.27;;;3.30;62.10;;;;;;5040506;28;37770;-78
2024/01/21 09:27:03;;;;;;;11.97;8.27;;;3.20;70.90;;;;;;5037214;28;36598;-79
2024/01/21 09:29:29;;;;;;;15.83;8.43;;;3.30;76.40;;;;;;5039808;28;38658;-78
2024/01/21 09:31:56;;;;;;;12.60;8.53;;;3.30;80.50;;;;;;5036433;28;38551;-78
2024/01/21 09:34:23;;;;;;;10.47;7.50;;;3.30;87.50;;;;;;5035415;28;37975;-77
2024/01/21 09:36:51;;;;;;;14.03;7.87;;;3.30;92.70;;;;;;5033565;28;36430;-78
2024/01/21 09:39:18;;;;;;;14.10;9.03;;;3.40;95.50;;;;;;5055735;28;39851;-77
2024/01/21 09:41:51;;;;;;;17.07;9.17;;;3.40;97.60;;;;;;5033529;28;37676;-77
2024/01/21 09:44:25;;;;;;;14.53;8.80;;;3.40;99.90;;;;;;5030752;28;36968;-77
2024/01/21 09:46:57;;;;;;;12.40;8.57;;;3.50;99.90;;;;;;5037814;28;36814;-77
2024/01/21 09:49:24;;;;;;;18.50;8.63;;;3.50;99.90;;;;;;5015314;28;37582;-77
2024/01/21 09:51:50;;;;;;;21.93;10.47;;;3.60;99.90;;;;;;5024938;28;37471;-77
2024/01/21 09:54:18;;;;;;;14.70;9.03;;;3.60;99.90;;;;;;5029210;28;36613;-76
2024/01/21 09:56:44;;;;;;;11.90;8.73;;;3.60;99.90;;;;;;5018622;28;39104;-76
2024/01/21 09:59:13;;;;;;;14.57;8.73;;;3.70;99.90;;;;;;5021896;28;37665;-75
2024/01/21 10:01:40;;;;;;;17.70;8.47;;;3.60;99.90;;;;;;5044522;28;38407;-76
2024/01/21 10:04:11;;;;;;;13.93;8.90;;;3.70;99.90;;;;;;5027016;28;36686;-76
2024/01/21 10:06:37;;;;;;;14.50;8.30;;;3.70;99.90;;;;;;5032458;28;35977;-77
2024/01/21 10:09:17;;;;;;;15.47;9.57;;;3.70;99.90;;;;;;5028594;28;37878;-76
2024/01/21 10:11:48;;;;;;;14.77;8.40;;;3.70;99.90;;;;;;5053091;28;38127;-76
2024/01/21 10:14:14;;;;;;;11.77;8.23;;;3.80;99.90;;;;;;5031777;28;37931;-76
2024/01/21 10:16:44;;;;;;;15.93;8.47;;;3.70;99.90;;;;;;5028933;28;37411;-76
2024/01/21 10:19:14;;;;;;;15.17;8.73;;;3.80;99.90;;;;;;5047536;28;38959;-77
2024/01/21 10:21:41;;;;;;;15.03;8.57;;;3.80;99.90;;;;;;5042150;28;38699;-77
2024/01/21 10:24:11;;;;;;;13.47;8.50;;;3.90;99.90;;;;;;5024712;28;36908;-77
2024/01/21 10:26:37;;;;;;;15.10;8.90;;;3.90;99.90;;;;;;5047239;28;37334;-78
2024/01/21 10:29:04;;;;;;;12.50;8.33;;;3.90;99.90;;;;;;5035538;28;38883;-78
2024/01/21 10:31:32;;;;;;;13.93;8.43;;;3.90;99.90;;;;;;5035465;28;38433;-78
2024/01/21 10:34:01;;;;;;;14.93;8.23;;;3.90;99.90;;;;;;5050965;28;39132;-78
2024/01/21 10:36:31;;;;;;;13.27;8.20;;;3.90;99.90;;;;;;5032959;28;47397;-78
2024/01/21 10:39:01;;;;;;;11.00;8.33;;;3.90;99.90;;;;;;5041126;28;38424;-78
2024/01/21 10:41:31;;;;;;;13.40;8.13;;;3.90;99.90;;;;;;5007060;28;38512;-79
2024/01/21 10:43:59;;;;;;;13.70;8.17;;;4.00;99.90;;;;;;5010540;28;38299;-78
2024/01/21 10:46:26;;;;;;;14.63;8.37;;;4.00;99.90;;;;;;5028386;28;37020;-75
2024/01/21 10:48:55;;;;;;;11.07;8.00;;;4.00;99.90;;;;;;5024569;28;37815;-79
2024/01/21 10:51:23;;;;;;;10.07;7.60;;;4.10;99.90;;;;;;5022531;28;38310;-78
2024/01/21 10:53:53;;;;;;;14.43;7.80;;;4.10;99.50;;;;;;5056958;28;38116;-77
2024/01/21 10:56:20;;;;;;;14.17;7.93;;;4.10;98.50;;;;;;5040875;28;37530;-76
2024/01/21 10:58:50;;;;;;;11.53;8.00;;;4.10;98.30;;;;;;5026921;28;38634;-77
2024/01/21 11:01:17;;;;;;;13.77;8.43;;;4.10;98.20;;;;;;5036401;28;38249;-76
2024/01/21 11:03:44;;;;;;;11.57;8.13;;;4.10;98.40;;;;;;5043402;28;38754;-76
2024/01/21 11:06:11;;;;;;;12.47;8.07;;;4.10;98.00;;;;;;5011853;28;35684;-77
2024/01/21 11:08:42;;;;;;;13.43;8.30;;;4.10;98.40;;;;;;5015749;28;37670;-77
2024/01/21 11:11:08;;;;;;;10.07;7.27;;;4.10;98.70;;;;;;5038400;28;37945;-76
2024/01/21 11:13:46;;;;;;;14.37;8.10;;;4.10;98.80;;;;;;5035768;28;37007;-76
2024/01/21 11:16:30;;;;;;;11.60;7.70;;;4.20;98.80;;;;;;5056309;28;37486;-78
2024/01/21 11:19:05;;;;;;;12.57;7.57;;;4.20;97.40;;;;;;5016062;28;39531;-77
2024/01/21 11:21:32;;;;;;;11.53;7.83;;;4.20;97.60;;;;;;5021867;28;47425;-76
2024/01/21 11:24:06;;;;;;;15.03;8.07;;;4.30;97.30;;;;;;5024419;28;38475;-75
2024/01/21 11:26:47;;;;;;;15.57;8.60;;;4.30;97.50;;;;;;5027195;28;48278;-75
2024/01/21 11:29:27;;;;;;;10.90;7.77;;;4.30;97.30;;;;;;5018651;28;39639;-76
2024/01/21 11:32:05;;;;;;;12.00;7.87;;;4.40;98.10;;;;;;5029381;28;37824;-76
2024/01/21 11:34:39;;;;;;;11.47;7.57;;;4.40;98.20;;;;;;5025673;28;50151;-76
2024/01/21 11:37:10;;;;;;;12.97;7.67;;;4.40;98.90;;;;;;5027381;28;36807;-77
2024/01/21 11:39:37;;;;;;;11.90;7.53;;;4.40;99.90;;;;;;5034030;28;37846;-76
2024/01/21 11:42:03;;;;;;;11.87;8.00;;;4.50;99.90;;;;;;5034502;28;39280;-77
2024/01/21 11:44:31;;;;;;;10.57;7.57;;;4.60;99.90;;;;;;5029788;28;40059;-76
2024/01/21 11:47:04;;;;;;;13.43;7.83;;;4.60;99.90;;;;;;5025860;28;36203;-75
2024/01/21 11:49:32;;;;;;;12.60;8.03;;;4.70;99.90;;;;;;5012480;28;47520;-77
2024/01/21 11:52:05;;;;;;;16.47;7.97;;;4.80;99.90;;;;;;5029215;28;37782;-76
2024/01/21 11:54:33;;;;;;;13.93;6.70;;;4.90;99.90;;;;;;5011661;28;47229;-76
2024/01/21 11:57:00;;;;;;;11.90;7.13;;;5.00;99.90;;;;;;5009578;28;36668;-77
2024/01/21 11:59:26;;;;;;;14.13;6.97;;;5.20;99.90;;;;;;5008783;28;38082;-76
2024/01/21 12:01:56;;;;;;;16.30;8.30;;;5.20;99.90;;;;;;5004182;28;36972;-77
2024/01/21 12:04:22;;;;;;;10.93;7.03;;;5.30;99.90;;;;;;5039691;28;37146;-76
2024/01/21 12:06:50;;;;;;;17.23;7.47;;;5.30;99.90;;;;;;5027872;28;37443;-76
2024/01/21 12:09:16;;;;;;;16.07;7.40;;;5.30;99.90;;;;;;5022114;28;37063;-76
2024/01/21 12:11:43;;;;;;;15.33;8.37;;;5.30;99.90;;;;;;5031150;28;38351;-76
2024/01/21 12:14:14;;;;;;;11.70;7.33;;;5.30;99.90;;;;;;5010163;28;38412;-78
2024/01/21 12:16:41;;;;;;;18.37;7.33;;;5.30;99.90;;;;;;5029512;28;35988;-76
2024/01/21 12:19:10;;;;;;;13.80;7.27;;;5.40;99.90;;;;;;5023480;28;38121;-79
2024/01/21 12:21:36;;;;;;;15.30;7.53;;;5.50;99.90;;;;;;5011691;28;38177;-76
2024/01/21 12:24:03;;;;;;;14.97;7.67;;;5.50;99.90;;;;;;5028570;28;38437;-75
2024/01/21 12:26:29;;;;;;;15.27;8.53;;;5.40;99.90;;;;;;5042052;28;35612;-78
2024/01/21 12:29:04;;;;;;;15.13;8.27;;;5.50;99.90;;;;;;5025041;28;38324;-78
2024/01/21 12:31:34;;;;;;;14.80;7.87;;;5.50;99.90;;;;;;5019848;28;47204;-77
2024/01/21 12:34:03;;;;;;;16.73;8.27;;;5.40;99.90;;;;;;5047078;28;37826;-76
2024/01/21 12:36:33;;;;;;;12.73;7.67;;;5.40;99.90;;;;;;5021000;28;47465;-77
2024/01/21 12:39:00;;;;;;;15.80;8.03;;;5.30;99.90;;;;;;5041856;28;39619;-77
2024/01/21 12:41:27;;;;;;;15.33;8.43;;;5.30;99.90;;;;;;5028105;28;38528;-78
2024/01/21 12:43:55;;;;;;;16.37;7.73;;;5.30;99.90;;;;;;5032622;28;37872;-76
2024/01/21 12:46:25;;;;;;;13.37;8.00;;;5.20;99.90;;;;;;5043077;28;37260;-76
2024/01/21 12:48:51;;;;;;;15.83;8.17;;;5.20;99.90;;;;;;5035829;28;40158;-76
2024/01/21 12:51:18;;;;;;;14.60;8.03;;;5.10;99.90;;;;;;5029237;28;39043;-77
2024/01/21 12:53:46;;;;;;;11.73;8.00;;;5.20;99.90;;;;;;5036127;28;38514;-75